Weather at General Santos International Airport

Public forecast

Using degrees Celsius for public forecast. Weather courtesy of forecast.io.

Current aviation weather report (METAR) for General Santos International Airport

Retrieved 2021/06/21 03:00 UTC (49 minutes ago):

RPMR 210300Z 12005KT 070V220 9999 FEW018 30/25 Q1011 RMK A2985

Aviation forecast (TAF) for General Santos International Airport

Retrieved 2021-06-21 00:00 UTC (4 hours ago):

TAF RPMR 202300Z 2100/2124 18006KT 9999 FEW018 BKN250 TEMPO 2104/2110 14012KT -SHRA FEW017CB SCT018 BKN080 BECMG 2112/2114 32004KT